• Join FlightAware (Why Join?)
  • Login
  • US Flag 
07:52AM EDT


 

Airport Tracker/Info


-or-


 

Live Flight TrackerFlight Track Log ✈ CTL17 ✈ 25-Jun-2013 ✈ KMBS - KYIP

Flight Track Log - Related Links

Times and Time Zones

All times are in EDT time to prevent confusion due to time zone crossing. See the CTL17 flight status page for this flight to view local times or setup timezone preferences in your user account.

Time Position Orientation Groundspeed Altitude Reporting Facility
EDT Latitude Longitude Course Direction KTS MPH feet Rate Location/Type
04:48PM 43.3619 -84.0057 160° South  Level Estimated
04:49PM 43.3366 -83.9838 148° Southeast  Level FlightAware Approximate
04:50PM 43.3080 -83.9718 160° South  Level Estimated
04:51PM 43.2807 -83.9553 156° South  Level FlightAware Approximate
04:52PM 43.2533 -83.9388 156° South  Level FlightAware Approximate
04:53PM 43.2247 -83.9271 163° South  Level Estimated
04:54PM 43.1965 -83.9134 161° South  Level FlightAware Approximate
04:55PM 43.1683 -83.8997 161° South  Level FlightAware Approximate
04:56PM 43.1401 -83.8861 161° South  Level FlightAware Approximate
04:56PM 42.8708 -83.7533 159° South 186 214 5,000  Level Cleveland Center
04:57PM 43.1115 -83.8746 160° South  Level Estimated
04:57PM 42.8217 -83.7311 162° South 179 206 5,000  Level Cleveland Center
04:58PM 43.0835 -83.8603 160° South  Level FlightAware Approximate
04:58PM 42.7719 -83.7144 166° South 179 206 5,000  Level Cleveland Center
04:59PM 43.0555 -83.8461 160° South  Level FlightAware Approximate
04:59PM 42.7222 -83.7006 168° South 176 203 5,100  Level Cleveland Center
05:00PM 43.0275 -83.8318 160° South  Level FlightAware Approximate
05:00PM 42.6728 -83.6811 164° South 189 217 4,600  Level Cleveland Center
05:01PM 42.6192 -83.6617 165° South 193 222 4,100 -300 Descending Cleveland Center
05:02PM 42.5736 -83.6453 165° South 170 196 4,100  Level Cleveland Center
05:03PM 42.5261 -83.6317 168° South 165 190 4,100  Level Cleveland Center
05:04PM 42.4889 -83.6158 163° South 160 184 4,100 -420 Level Cleveland Center
05:05PM 42.4458 -83.5969 162° South 192 221 3,400 -600 Descending Cleveland Center
05:06PM 42.3922 -83.5717 161° South 181 208 2,900 -480 Descending Cleveland Center
05:07PM 42.3450 -83.5444 157° South 180 207 2,400 -540 Descending Cleveland Center
05:08PM 42.3058 -83.5256 160° South 171 197 2,000 -480 Descending Cleveland Center
05:09PM 42.2703 -83.5239 178° South 132 152 1,600 -480 Descending Cleveland Center
05:11PM 42.2333 -83.5167 160° South  Level FlightAware Approximate
05:18PM 42.2393 -83.5310 160° South  Level Estimated